Time;durP1;ratioP1;P1;durP2;ratioP2;P2;SDS_P1;SDS_P2;PMS_P1;PMS_P2;Temp;Humidity;BMP_temperature;BMP_pressure;BME280_temperature;BME280_humidity;BME280_pressure;Samples;Min_cycle;Max_cycle;Signal;HPM_P1;HPM_P2
2021/12/02 00:00:13;;;;;;;6.55;1.42;;;;;;;5.25;61.24;98494.56;4138034;28;20716;-57
2021/12/02 00:02:19;;;;;;;7.53;1.63;;;;;;;5.17;60.79;98496.25;4141564;28;20081;-58
2021/12/02 00:04:22;;;;;;;4.10;1.30;;;;;;;5.12;60.64;98524.56;4143578;28;20292;-57
2021/12/02 00:06:26;;;;;;;7.68;1.08;;;;;;;5.11;60.78;98481.66;4146604;28;20046;-57
2021/12/02 00:08:29;;;;;;;7.07;1.10;;;;;;;4.99;61.45;98491.88;4150541;28;20038;-55
2021/12/02 00:10:34;;;;;;;6.47;1.40;;;;;;;4.88;61.97;98513.28;4147740;28;20056;-60
2021/12/02 00:12:37;;;;;;;6.53;1.30;;;;;;;4.89;61.89;98486.69;4146235;28;20491;-59
2021/12/02 00:14:43;;;;;;;7.53;1.48;;;;;;;4.83;62.63;98504.69;4143695;28;20042;-59
2021/12/02 00:16:53;;;;;;;6.25;1.33;;;;;;;4.81;62.70;98498.66;4139466;28;20483;-59
2021/12/02 00:21:20;;;;;;;2.78;1.08;;;;;;;4.73;63.38;98495.16;4140311;28;20112;-58
2021/12/02 00:23:34;;;;;;;9.13;1.70;;;;;;;4.69;63.40;98520.03;4136510;28;20104;-57
2021/12/02 00:25:37;;;;;;;2.88;1.33;;;;;;;4.68;63.72;98518.31;4139495;28;20407;-57
2021/12/02 00:27:42;;;;;;;8.35;1.70;;;;;;;4.67;63.74;98537.19;4139584;28;20099;-56
2021/12/02 00:29:47;;;;;;;4.53;1.38;;;;;;;4.67;63.14;98528.59;4140060;28;20434;-55
2021/12/02 00:31:52;;;;;;;5.03;1.23;;;;;;;4.71;63.38;98530.34;4152837;28;20037;-57
2021/12/02 00:33:57;;;;;;;7.38;1.52;;;;;;;4.69;63.47;98539.78;4139441;28;20050;-59
2021/12/02 00:36:02;;;;;;;5.40;1.73;;;;;;;4.73;63.17;98556.94;4139348;28;20068;-54
2021/12/02 00:38:05;;;;;;;;;;;;;;;4.72;63.49;98555.25;4141444;28;20038;-61
2021/12/02 00:40:09;;;;;;;7.32;1.55;;;;;;;4.77;63.18;98563.84;4139990;28;20670;-60
2021/12/02 00:42:12;;;;;;;7.33;2.10;;;;;;;4.79;63.27;98575.03;4141256;28;20672;-58
2021/12/02 00:44:18;;;;;;;7.43;1.67;;;;;;;4.72;63.05;98586.13;4138535;28;20297;-58
2021/12/02 00:46:23;;;;;;;8.15;1.65;;;;;;;4.70;63.41;98570.69;4138360;28;20030;-59
2021/12/02 00:48:26;;;;;;;7.82;1.90;;;;;;;4.73;63.34;98580.09;4137065;28;20097;-56
2021/12/02 00:50:29;;;;;;;5.30;1.20;;;;;;;4.76;62.87;98585.31;4137255;28;20125;-58
2021/12/02 00:52:36;;;;;;;3.15;1.23;;;;;;;4.69;62.89;98562.94;4139925;28;20388;-59
2021/12/02 00:54:41;;;;;;;8.70;1.65;;;;;;;4.71;62.60;98574.09;4137149;28;20580;-56
2021/12/02 00:56:44;;;;;;;8.52;1.80;;;;;;;4.75;62.42;98569.84;4136841;28;20041;-56
2021/12/02 00:58:48;;;;;;;3.63;1.13;;;;;;;4.77;62.11;98569.00;4137507;28;20046;-59
2021/12/02 01:00:53;;;;;;;6.97;1.60;;;;;;;4.78;62.64;98591.31;4142056;28;20038;-63
2021/12/02 01:02:59;;;;;;;7.05;1.88;;;;;;;4.75;62.63;98568.13;4138079;28;20045;-57
2021/12/02 01:05:03;;;;;;;5.45;1.67;;;;;;;4.74;62.92;98584.41;4138553;28;20151;-56
2021/12/02 01:07:06;;;;;;;6.72;1.48;;;;;;;4.82;62.74;98585.34;4138632;28;20038;-57
2021/12/02 01:09:12;;;;;;;5.25;1.45;;;;;;;4.84;62.59;98590.50;4137842;28;20056;-57
2021/12/02 01:11:17;;;;;;;4.70;1.17;;;;;;;4.87;62.69;98608.53;4135174;28;20105;-60
2021/12/02 01:13:20;;;;;;;4.38;1.50;;;;;;;4.88;63.06;98571.66;4138914;28;20132;-56
2021/12/02 01:15:25;;;;;;;5.35;1.65;;;;;;;4.92;63.06;98604.31;4134280;28;20069;-57
2021/12/02 01:17:28;;;;;;;4.60;1.40;;;;;;;4.94;62.84;98578.56;4138681;28;20128;-55
2021/12/02 01:19:31;;;;;;;4.75;1.40;;;;;;;4.95;63.11;98600.88;4139727;28;20099;-57
2021/12/02 01:21:39;;;;;;;6.70;1.60;;;;;;;4.97;63.19;98604.31;4139725;28;20458;-59
2021/12/02 01:23:43;;;;;;;6.45;1.25;;;;;;;4.99;63.14;98639.50;4135905;28;20053;-58
2021/12/02 01:25:53;;;;;;;6.00;1.40;;;;;;;4.82;63.61;98623.06;4136711;28;20041;-57
2021/12/02 01:27:58;;;;;;;8.38;1.70;;;;;;;4.73;64.04;98623.88;4137174;28;20042;-58
2021/12/02 01:30:01;;;;;;;5.30;1.63;;;;;;;4.65;64.23;98625.53;4138017;28;20434;-56
2021/12/02 01:32:07;;;;;;;5.43;1.40;;;;;;;4.68;64.22;98630.72;4137350;28;20095;-57
2021/12/02 01:34:10;;;;;;;5.85;1.70;;;;;;;4.54;64.46;98652.03;4136414;28;20050;-58
2021/12/02 01:36:14;;;;;;;3.95;1.27;;;;;;;4.52;64.44;98625.41;4139126;28;20050;-57
2021/12/02 01:38:17;;;;;;;6.95;1.33;;;;;;;4.49;64.80;98640.84;4133642;28;20048;-61
2021/12/02 01:40:21;;;;;;;4.15;1.30;;;;;;;4.55;64.85;98645.19;4137680;28;20068;-58
2021/12/02 01:42:27;;;;;;;6.15;1.20;;;;;;;4.63;63.45;98653.84;4145948;28;20049;-58
2021/12/02 01:44:31;;;;;;;8.32;1.58;;;;;;;4.79;62.34;98667.72;4139174;28;20038;-61
2021/12/02 01:46:37;;;;;;;6.07;1.20;;;;;;;4.79;62.31;98648.81;4141645;28;20084;-56
2021/12/02 01:48:41;;;;;;;4.28;1.42;;;;;;;4.74;62.46;98643.63;4138798;28;20329;-60
2021/12/02 01:50:44;;;;;;;3.83;0.90;;;;;;;4.75;63.00;98657.38;4137602;28;20050;-58
2021/12/02 01:52:50;;;;;;;3.20;0.90;;;;;;;4.76;62.25;98649.66;4139537;28;20045;-57
2021/12/02 01:55:06;;;;;;;4.25;1.23;;;;;;;4.77;62.65;98666.81;4137606;28;20505;-58
2021/12/02 01:57:09;;;;;;;5.50;1.52;;;;;;;4.87;61.97;98654.88;4137937;28;20092;-56
2021/12/02 01:59:16;;;;;;;4.30;1.10;;;;;;;4.82;61.87;98680.59;4135973;28;20128;-57
2021/12/02 02:01:24;;;;;;;8.00;1.85;;;;;;;4.71;62.53;98648.75;4136898;28;20698;-58
2021/12/02 02:03:28;;;;;;;7.32;1.60;;;;;;;4.73;62.29;98685.66;4138855;28;20095;-57
2021/12/02 02:05:32;;;;;;;5.10;1.25;;;;;;;4.63;62.72;98678.69;4138041;28;20153;-58
2021/12/02 02:07:41;;;;;;;6.65;1.38;;;;;;;4.63;63.14;98684.72;4137045;28;20070;-59
2021/12/02 02:09:45;;;;;;;6.53;1.67;;;;;;;4.63;63.52;98684.72;4139481;28;20045;-57
2021/12/02 02:11:48;;;;;;;7.30;1.40;;;;;;;4.70;64.21;98701.94;4137519;28;20548;-60
2021/12/02 02:13:51;;;;;;;5.93;1.40;;;;;;;4.61;64.78;98703.56;4136316;28;20406;-57
2021/12/02 02:15:55;;;;;;;8.13;2.35;;;;;;;4.28;66.80;98703.25;4137131;28;20080;-58
2021/12/02 02:18:03;;;;;;;8.40;0.90;;;;;;;4.06;67.48;98697.00;4145111;28;20042;-59
2021/12/02 02:20:10;;;;;;;7.28;1.20;;;;;;;3.88;68.27;98701.91;4144901;28;20046;-58
2021/12/02 02:22:20;;;;;;;5.47;1.10;;;;;;;3.79;68.53;98705.22;4142953;28;20132;-57
2021/12/02 02:24:23;;;;;;;8.55;1.10;;;;;;;3.60;69.70;98717.81;4135108;28;20111;-60
2021/12/02 02:26:30;;;;;;;4.32;1.35;;;;;;;3.59;69.70;98720.34;4138846;28;20041;-56
2021/12/02 02:28:33;;;;;;;3.20;0.90;;;;;;;3.65;69.63;98723.88;4137520;28;20153;-57
2021/12/02 02:30:36;;;;;;;5.55;1.50;;;;;;;3.74;69.81;98736.00;4135725;28;20038;-60
2021/12/02 02:32:40;;;;;;;5.43;1.95;;;;;;;3.84;69.15;98735.28;4137440;28;20053;-58
2021/12/02 02:34:43;;;;;;;2.92;1.20;;;;;;;3.77;69.48;98730.91;4138283;28;20089;-57
2021/12/02 02:36:52;;;;;;;5.22;1.17;;;;;;;3.86;69.78;98737.00;4136694;28;20042;-57
2021/12/02 02:38:57;;;;;;;7.50;1.48;;;;;;;3.88;69.48;98740.47;4137221;28;20095;-57
2021/12/02 02:41:02;;;;;;;3.60;1.17;;;;;;;3.95;68.96;98737.13;4146348;28;20124;-58
2021/12/02 02:43:07;;;;;;;6.10;1.95;;;;;;;3.98;68.33;98729.44;4143910;28;20050;-58
2021/12/02 02:45:10;;;;;;;4.03;1.02;;;;;;;3.94;68.26;98748.25;4137719;28;20108;-59
2021/12/02 02:47:13;;;;;;;7.45;2.83;;;;;;;3.95;67.92;98742.28;4135161;28;20116;-59
2021/12/02 02:49:17;;;;;;;12.65;2.20;;;;;;;3.87;68.32;98744.75;4135604;28;20047;-57
2021/12/02 02:51:20;;;;;;;7.80;1.25;;;;;;;3.84;67.79;98740.41;4133310;28;20495;-58
2021/12/02 02:53:25;;;;;;;7.32;1.95;;;;;;;3.79;67.90;98739.47;4136422;28;20049;-59
2021/12/02 02:55:30;;;;;;;7.80;1.52;;;;;;;3.80;67.63;98763.50;4134909;28;20056;-58
2021/12/02 02:57:41;;;;;;;6.45;1.25;;;;;;;3.79;67.72;98765.19;4137925;28;20065;-60
2021/12/02 02:59:59;;;;;;;6.63;1.63;;;;;;;3.91;65.95;98766.19;4135103;28;20419;-59
2021/12/02 03:02:08;;;;;;;8.65;2.15;;;;;;;3.95;65.55;98752.56;4138842;28;20041;-58
2021/12/02 03:06:45;;;;;;;7.20;1.40;;;;;;;3.90;65.84;98762.78;4136508;28;20046;-60
2021/12/02 03:08:52;;;;;;;13.90;1.80;;;;;;;3.89;64.74;98766.19;4137632;28;20047;-62
2021/12/02 03:10:58;;;;;;;7.60;1.85;;;;;;;3.84;64.89;98768.69;4134935;28;20073;-60
2021/12/02 03:13:11;;;;;;;10.88;2.05;;;;;;;3.78;64.76;98773.75;4149731;28;20049;-61
2021/12/02 03:17:41;;;;;;;7.82;1.55;;;;;;;3.84;63.98;98807.25;4098421;28;20106;-57
2021/12/02 03:19:47;;;;;;;9.05;1.95;;;;;;;3.88;63.99;98764.44;4133455;28;20083;-57
2021/12/02 03:21:49;;;;;;;6.38;1.52;;;;;;;3.73;63.95;98779.66;4134692;28;20510;-58
2021/12/02 03:23:55;;;;;;;9.73;1.70;;;;;;;3.74;64.25;98773.66;4136460;28;20454;-59
2021/12/02 03:26:00;;;;;;;13.30;2.40;;;;;;;3.81;63.77;98778.06;4134763;28;20038;-58
2021/12/02 03:28:04;;;;;;;9.82;2.13;;;;;;;3.88;63.51;98797.00;4153671;28;20046;-58
2021/12/02 03:30:08;;;;;;;8.50;2.15;;;;;;;3.88;63.85;98785.00;4137350;28;20042;-58
2021/12/02 03:32:12;;;;;;;9.77;1.73;;;;;;;3.91;63.71;98795.34;4136907;28;20066;-59
2021/12/02 03:34:15;;;;;;;7.45;1.88;;;;;;;3.92;64.22;98791.06;4137223;28;20098;-57
2021/12/02 03:36:20;;;;;;;8.13;1.75;;;;;;;3.96;64.41;98798.00;4137734;28;20783;-57
2021/12/02 03:38:23;;;;;;;6.33;1.77;;;;;;;4.06;64.58;98807.56;4136800;28;20042;-62
2021/12/02 03:40:26;;;;;;;10.93;2.03;;;;;;;4.13;64.26;98808.50;4134793;28;20297;-58
2021/12/02 03:42:30;;;;;;;18.67;2.40;;;;;;;4.14;64.78;98815.38;4137842;28;20030;-59
2021/12/02 03:44:33;;;;;;;11.18;2.13;;;;;;;4.13;64.79;98805.91;4136250;28;20068;-58
2021/12/02 03:46:37;;;;;;;18.88;2.92;;;;;;;4.17;64.73;98811.13;4148514;28;20076;-58
2021/12/02 03:48:41;;;;;;;8.32;2.17;;;;;;;4.13;64.92;98814.53;4139425;28;20079;-62
2021/12/02 03:50:44;;;;;;;7.88;2.15;;;;;;;4.15;65.06;98809.38;4134436;28;20100;-57
2021/12/02 03:52:47;;;;;;;13.23;1.90;;;;;;;4.22;64.45;98807.75;4135319;28;20663;-61
2021/12/02 03:54:50;;;;;;;7.95;1.45;;;;;;;4.26;64.54;98819.81;4135226;28;20037;-61
2021/12/02 03:56:53;;;;;;;9.15;2.75;;;;;;;4.32;64.35;98823.34;4135760;28;20096;-60
2021/12/02 03:58:57;;;;;;;9.88;2.15;;;;;;;4.29;64.20;98813.00;4137089;28;20045;-60
2021/12/02 04:01:00;;;;;;;11.13;1.92;;;;;;;4.27;64.19;98806.97;4136330;28;20085;-60
2021/12/02 04:03:04;;;;;;;8.80;2.10;;;;;;;4.35;64.40;98817.34;4135983;28;20132;-60
2021/12/02 04:05:07;;;;;;;13.40;1.83;;;;;;;4.34;64.06;98811.34;4139723;28;20186;-60
2021/12/02 04:07:10;;;;;;;7.47;2.03;;;;;;;4.36;64.14;98819.06;4134483;28;20042;-60
2021/12/02 04:09:16;;;;;;;6.53;1.83;;;;;;;4.36;64.27;98824.22;4134329;28;20045;-60
2021/12/02 04:11:27;;;;;;;8.02;1.85;;;;;;;4.32;64.42;98813.03;4136931;28;20056;-62
2021/12/02 04:13:33;;;;;;;7.63;1.65;;;;;;;4.31;64.15;98816.44;4133730;28;20061;-60
2021/12/02 04:15:39;;;;;;;12.57;2.40;;;;;;;4.28;64.48;98815.53;4135287;28;20053;-59
2021/12/02 04:17:43;;;;;;;12.70;3.40;;;;;;;4.27;64.49;98821.53;4133998;28;20106;-60
2021/12/02 04:19:46;;;;;;;6.70;1.73;;;;;;;4.18;64.15;98830.00;4133469;28;20096;-59
2021/12/02 04:21:50;;;;;;;12.68;2.00;;;;;;;4.18;64.61;98830.84;4133786;28;20046;-59
2021/12/02 04:23:53;;;;;;;10.10;1.92;;;;;;;4.14;64.62;98829.09;4130243;28;20038;-60
2021/12/02 04:25:56;;;;;;;13.40;3.03;;;;;;;4.17;63.96;98839.41;4135165;28;20117;-57
2021/12/02 04:27:59;;;;;;;10.23;1.90;;;;;;;4.17;63.95;98841.13;4132650;28;20454;-60
2021/12/02 04:30:03;;;;;;;10.07;2.58;;;;;;;4.12;64.25;98838.50;4132698;28;20034;-59
2021/12/02 04:32:09;;;;;;;11.70;2.40;;;;;;;4.06;64.45;98835.84;4136156;28;20470;-59
2021/12/02 04:34:13;;;;;;;10.15;1.83;;;;;;;4.09;64.47;98840.16;4136017;28;20069;-59
2021/12/02 04:36:16;;;;;;;9.90;1.50;;;;;;;4.06;64.82;98850.38;4135912;28;20046;-61
2021/12/02 04:38:20;;;;;;;8.00;2.30;;;;;;;4.07;64.84;98850.41;4140017;28;20039;-62
2021/12/02 04:40:24;;;;;;;22.88;4.45;;;;;;;4.05;64.38;98856.41;4135849;28;20156;-59
2021/12/02 04:42:29;;;;;;;11.30;2.08;;;;;;;4.02;64.43;98857.22;4157012;28;20080;-60
2021/12/02 04:44:32;;;;;;;7.32;1.63;;;;;;;4.04;64.47;98845.22;4137302;28;20054;-61
2021/12/02 04:46:35;;;;;;;10.05;2.22;;;;;;;4.02;64.17;98846.94;4143928;28;20038;-61
2021/12/02 04:48:39;;;;;;;11.77;2.10;;;;;;;3.90;64.69;98849.31;4144302;28;20084;-59
2021/12/02 04:50:43;;;;;;;7.95;1.80;;;;;;;3.81;64.68;98860.31;4142100;28;20052;-61
2021/12/02 04:52:46;;;;;;;8.15;2.13;;;;;;;3.71;64.72;98867.03;4141692;28;20440;-60
2021/12/02 04:54:49;;;;;;;11.45;3.13;;;;;;;3.65;64.79;98874.63;4137823;28;20049;-59
2021/12/02 04:56:52;;;;;;;11.52;3.25;;;;;;;3.66;65.05;98871.22;4137362;28;20042;-61
2021/12/02 04:58:55;;;;;;;7.15;2.08;;;;;;;3.69;64.36;98863.56;4135658;28;20073;-60
2021/12/02 05:00:59;;;;;;;16.25;2.90;;;;;;;3.71;64.38;98867.03;4137468;28;20034;-61
2021/12/02 05:03:02;;;;;;;10.65;2.25;;;;;;;3.66;64.46;98871.22;4135806;28;20160;-61
2021/12/02 05:05:08;;;;;;;12.90;1.95;;;;;;;3.80;64.29;98885.16;4136333;28;20483;-61
2021/12/02 05:07:11;;;;;;;9.98;2.10;;;;;;;3.77;63.98;98879.97;4137212;28;21409;-59
2021/12/02 05:09:14;;;;;;;6.95;1.70;;;;;;;3.82;64.34;98903.19;4135702;28;20046;-60
2021/12/02 05:11:17;;;;;;;8.45;2.05;;;;;;;3.84;63.61;98884.38;4137342;28;20092;-62
2021/12/02 05:13:20;;;;;;;9.38;3.03;;;;;;;3.84;64.00;98886.94;4156197;28;20053;-61
2021/12/02 05:15:24;;;;;;;14.33;2.00;;;;;;;3.91;63.55;98895.59;4139099;28;20759;-59
2021/12/02 05:17:28;;;;;;;17.42;2.80;;;;;;;3.92;63.29;98904.19;4135767;28;20447;-58
2021/12/02 05:19:31;;;;;;;9.48;2.03;;;;;;;3.98;63.30;98906.84;4138731;28;20026;-60
2021/12/02 05:21:35;;;;;;;15.18;2.30;;;;;;;3.90;63.48;98901.59;4136354;28;20127;-61
2021/12/02 05:23:38;;;;;;;8.65;1.52;;;;;;;3.93;63.38;98901.66;4135988;28;20074;-60
2021/12/02 05:25:43;;;;;;;11.80;3.63;;;;;;;4.07;63.21;98904.41;4137377;28;20437;-61
2021/12/02 05:27:46;;;;;;;;;;;;;;;3.94;62.99;98907.63;4135671;28;20046;-61
2021/12/02 05:29:49;;;;;;;10.43;1.90;;;;;;;4.04;62.76;98913.81;4136101;28;19921;-58
2021/12/02 05:31:52;;;;;;;18.33;3.45;;;;;;;3.98;62.39;98914.56;4137211;28;20045;-61
2021/12/02 05:33:55;;;;;;;11.68;2.25;;;;;;;3.95;63.01;98919.66;4135112;28;20104;-58
2021/12/02 05:35:58;;;;;;;8.35;1.63;;;;;;;3.84;65.58;98953.78;4134967;28;20048;-61
2021/12/02 05:38:03;;;;;;;6.15;1.48;;;;;;;3.59;67.28;98941.31;4135112;28;20042;-59
2021/12/02 05:40:07;;;;;;;8.45;1.75;;;;;;;3.24;69.13;98944.13;4140764;28;20050;-61
2021/12/02 05:42:10;;;;;;;4.80;1.63;;;;;;;3.06;70.48;98945.50;4135903;28;20045;-60
2021/12/02 05:44:13;;;;;;;10.80;2.00;;;;;;;2.98;70.69;98944.50;4137925;28;20049;-58
2021/12/02 05:46:16;;;;;;;4.60;1.45;;;;;;;2.92;71.48;98952.03;4140792;28;20050;-60
2021/12/02 05:48:19;;;;;;;8.27;1.77;;;;;;;2.89;71.04;98946.84;4139134;28;20087;-59
2021/12/02 05:50:22;;;;;;;7.35;1.48;;;;;;;2.84;71.05;98959.59;4137625;28;20513;-59
2021/12/02 05:52:25;;;;;;;8.30;1.95;;;;;;;2.85;71.63;98950.19;4135663;28;20100;-60
2021/12/02 05:54:29;;;;;;;5.80;1.80;;;;;;;2.92;71.19;98964.88;4138814;28;20111;-60
2021/12/02 05:56:33;;;;;;;9.35;2.40;;;;;;;2.96;71.14;98956.41;4145580;28;20451;-58
2021/12/02 05:58:36;;;;;;;12.43;2.03;;;;;;;3.01;71.01;98962.53;4145023;28;20561;-60
2021/12/02 06:00:40;;;;;;;7.28;2.40;;;;;;;3.09;70.61;98960.94;4141928;28;20042;-57
2021/12/02 06:02:43;;;;;;;7.18;1.58;;;;;;;3.15;70.15;98967.91;4139943;28;20081;-60
2021/12/02 06:04:50;;;;;;;12.50;2.33;;;;;;;3.16;70.52;98967.09;4134453;28;20376;-60
2021/12/02 06:06:53;;;;;;;9.13;1.95;;;;;;;3.25;69.62;98976.69;4137245;28;20124;-60
2021/12/02 06:08:56;;;;;;;7.00;1.48;;;;;;;3.27;69.17;98975.88;4134846;28;20045;-57
2021/12/02 06:11:01;;;;;;;9.40;2.10;;;;;;;3.31;69.17;98974.22;4136430;28;20049;-60
2021/12/02 06:13:04;;;;;;;19.13;3.45;;;;;;;3.37;68.23;98982.03;4137621;28;20041;-61
2021/12/02 06:15:08;;;;;;;12.48;2.33;;;;;;;3.39;67.23;98995.78;4133884;28;20092;-58
2021/12/02 06:17:11;;;;;;;5.57;1.50;;;;;;;3.42;67.50;99008.69;4137616;28;20141;-60
2021/12/02 06:19:14;;;;;;;11.10;2.30;;;;;;;3.39;68.23;99000.03;4138645;28;20092;-65
2021/12/02 06:21:17;;;;;;;10.10;2.38;;;;;;;3.31;68.49;99003.34;4151186;28;20080;-58
2021/12/02 06:23:21;;;;;;;7.10;1.98;;;;;;;3.27;68.36;99009.25;4134883;28;20045;-60
2021/12/02 06:27:48;;;;;;;8.63;1.70;;;;;;;3.32;68.38;98989.66;4136173;28;20045;-59
2021/12/02 06:29:51;;;;;;;6.75;2.00;;;;;;;3.25;67.70;98992.94;4135486;28;20830;-59
2021/12/02 06:31:54;;;;;;;8.68;2.25;;;;;;;3.10;67.82;99008.91;4135727;28;20100;-60
2021/12/02 06:33:57;;;;;;;7.18;1.50;;;;;;;3.05;67.66;99014.78;4134950;28;20038;-60
2021/12/02 06:36:00;;;;;;;9.38;1.80;;;;;;;3.03;67.59;99016.47;4132435;28;20132;-58
2021/12/02 06:38:04;;;;;;;11.43;2.58;;;;;;;2.95;68.08;99021.44;4129859;28;20050;-60
2021/12/02 06:40:08;;;;;;;9.18;2.28;;;;;;;2.90;68.18;99017.91;4129435;28;20038;-56
2021/12/02 06:42:11;;;;;;;4.82;1.55;;;;;;;2.83;68.17;99023.72;4129964;28;20034;-58
2021/12/02 06:44:15;;;;;;;7.38;1.80;;;;;;;2.80;67.81;99024.50;4130046;28;21747;-58
2021/12/02 06:46:18;;;;;;;7.70;1.83;;;;;;;2.78;67.42;99029.63;4130576;28;20050;-58
2021/12/02 06:48:22;;;;;;;12.50;2.13;;;;;;;2.75;67.52;99037.25;4137283;28;20174;-59
2021/12/02 06:50:26;;;;;;;10.88;2.47;;;;;;;2.80;66.55;99029.66;4139877;28;20044;-60
2021/12/02 06:52:31;;;;;;;9.02;2.20;;;;;;;2.75;66.62;99038.97;4154155;28;20107;-58
2021/12/02 06:54:33;;;;;;;10.13;2.22;;;;;;;2.73;66.66;99038.94;4141249;28;20100;-59
2021/12/02 06:56:36;;;;;;;15.48;2.40;;;;;;;2.71;66.56;99043.13;4140823;28;20064;-60
2021/12/02 06:58:39;;;;;;;7.18;2.92;;;;;;;2.74;65.97;99056.03;4140054;28;20226;-61
2021/12/02 07:00:44;;;;;;;12.45;2.08;;;;;;;2.87;66.36;99057.19;4139991;28;20096;-61
2021/12/02 07:02:48;;;;;;;10.27;2.30;;;;;;;2.99;65.69;99056.59;4139419;28;20175;-60
2021/12/02 07:04:58;;;;;;;9.63;1.75;;;;;;;3.00;65.73;99063.47;4137308;28;20038;-60
2021/12/02 07:07:01;;;;;;;9.18;1.73;;;;;;;3.13;65.03;99078.28;4139302;28;20152;-58
2021/12/02 07:09:05;;;;;;;11.23;2.15;;;;;;;3.22;64.53;99079.34;4139738;28;20038;-59
2021/12/02 07:11:09;;;;;;;7.72;1.77;;;;;;;3.19;64.50;99084.41;4140951;28;20030;-57
2021/12/02 07:13:13;;;;;;;13.73;3.92;;;;;;;3.24;64.31;99087.94;4142056;28;20068;-58
2021/12/02 07:15:20;;;;;;;11.52;2.13;;;;;;;3.22;63.86;99095.59;4141508;28;20046;-57
2021/12/02 07:17:25;;;;;;;9.52;1.63;;;;;;;3.27;63.66;99098.25;4141083;28;20125;-58
2021/12/02 07:19:28;;;;;;;;;;;;;;;3.27;63.22;99109.44;4150275;28;20055;-58
2021/12/02 07:21:32;;;;;;;13.23;2.17;;;;;;;3.25;63.67;99105.09;4147842;28;20322;-56
2021/12/02 07:23:35;;;;;;;6.88;1.95;;;;;;;3.21;63.17;99113.56;4146724;28;20053;-57
2021/12/02 07:25:40;;;;;;;8.57;2.03;;;;;;;3.16;63.85;99110.03;4146765;28;20042;-57
2021/12/02 07:27:44;;;;;;;7.28;1.65;;;;;;;3.06;63.97;99117.50;4146713;28;20549;-58
2021/12/02 07:29:49;;;;;;;7.28;1.63;;;;;;;3.03;63.35;99120.00;4146342;28;20049;-57
2021/12/02 07:31:53;;;;;;;7.30;1.75;;;;;;;3.00;63.39;99135.34;4146132;28;20429;-58
2021/12/02 07:33:59;;;;;;;8.95;1.58;;;;;;;2.98;63.81;99121.63;4146781;28;20148;-57
2021/12/02 07:36:02;;;;;;;7.97;1.65;;;;;;;2.91;63.61;99130.00;4145348;28;20037;-56
2021/12/02 07:38:05;;;;;;;8.15;1.70;;;;;;;2.88;63.10;99135.06;4145756;28;20104;-58
2021/12/02 07:40:12;;;;;;;6.20;1.55;;;;;;;2.84;63.50;99134.13;4151335;28;20050;-54
2021/12/02 07:42:17;;;;;;;5.70;1.55;;;;;;;2.89;62.69;99134.22;4164388;28;20046;-57
2021/12/02 07:44:20;;;;;;;9.18;2.05;;;;;;;3.02;61.80;99133.66;4154688;28;20053;-56
2021/12/02 07:46:24;;;;;;;7.00;1.67;;;;;;;3.10;61.76;99146.72;4137561;28;20424;-59
2021/12/02 07:48:28;;;;;;;5.32;1.48;;;;;;;3.24;63.05;99145.31;4143855;28;20101;-57
2021/12/02 07:50:34;;;;;;;4.63;1.70;;;;;;;3.52;62.46;99145.03;4148187;28;20038;-52
2021/12/02 07:52:43;;;;;;;7.50;1.77;;;;;;;3.70;60.79;99148.00;4147070;28;20052;-56
2021/12/02 07:54:50;;;;;;;6.57;2.67;;;;;;;3.73;61.05;99142.91;4150424;28;20068;-56
2021/12/02 07:56:54;;;;;;;4.72;1.33;;;;;;;3.77;58.75;99143.88;4143165;28;20128;-59
2021/12/02 07:58:57;;;;;;;7.70;1.80;;;;;;;3.65;58.75;99142.75;4138534;28;20140;-55
2021/12/02 08:01:02;;;;;;;8.75;1.50;;;;;;;3.45;58.74;99155.19;4144885;28;20065;-60
2021/12/02 08:03:09;;;;;;;6.43;1.50;;;;;;;3.29;59.23;99156.53;4146233;28;20406;-57
2021/12/02 08:05:13;;;;;;;7.38;1.88;;;;;;;3.16;59.16;99146.84;4142375;28;20451;-56
2021/12/02 08:07:17;;;;;;;7.50;1.65;;;;;;;3.19;59.26;99151.19;4145055;28;20057;-56
2021/12/02 08:09:20;;;;;;;4.13;1.45;;;;;;;3.08;59.72;99156.06;4143685;28;20088;-59
2021/12/02 08:11:23;;;;;;;8.20;1.83;;;;;;;3.03;59.85;99161.09;4143635;28;20038;-57
2021/12/02 08:13:30;;;;;;;7.45;1.40;;;;;;;3.04;60.05;99165.41;4144102;28;20045;-60
2021/12/02 08:15:33;;;;;;;5.70;1.48;;;;;;;3.05;61.06;99153.41;4147469;28;20503;-58
2021/12/02 08:17:36;;;;;;;9.07;1.60;;;;;;;2.94;61.52;99151.47;4145971;28;20112;-57
2021/12/02 08:19:39;;;;;;;7.78;2.60;;;;;;;2.78;61.46;99151.94;4140488;28;20046;-60
2021/12/02 08:21:43;;;;;;;4.75;1.65;;;;;;;2.72;62.33;99159.50;4137557;28;20046;-59
2021/12/02 08:23:47;;;;;;;10.82;2.20;;;;;;;2.74;62.17;99168.09;4145513;28;20439;-58
2021/12/02 08:25:50;;;;;;;4.75;1.52;;;;;;;2.75;61.98;99165.56;4146181;28;20407;-58
2021/12/02 08:27:55;;;;;;;6.80;1.65;;;;;;;2.73;61.95;99166.34;4142507;28;20045;-58
2021/12/02 08:30:01;;;;;;;8.60;1.70;;;;;;;2.67;62.59;99168.75;4138525;28;20166;-55
2021/12/02 08:32:05;;;;;;;7.63;1.80;;;;;;;2.69;61.44;99177.38;4144504;28;20042;-56
2021/12/02 08:34:09;;;;;;;5.93;1.70;;;;;;;2.69;62.34;99183.38;4146225;28;20323;-58
2021/12/02 08:36:14;;;;;;;5.38;1.52;;;;;;;2.83;62.10;99185.41;4155059;28;20049;-56
2021/12/02 08:38:19;;;;;;;8.30;1.65;;;;;;;2.96;61.86;99182.31;4146248;28;20068;-60
2021/12/02 08:40:30;;;;;;;9.32;1.90;;;;;;;3.28;61.06;99182.19;4142040;28;20169;-60
2021/12/02 08:42:33;;;;;;;9.35;2.25;;;;;;;3.36;60.52;99180.69;4145125;28;20046;-57
2021/12/02 08:44:39;;;;;;;8.93;1.60;;;;;;;3.25;60.88;99190.69;4147217;28;20080;-55
2021/12/02 08:46:42;;;;;;;5.38;1.42;;;;;;;3.07;60.90;99192.84;4142616;28;20060;-58
2021/12/02 08:48:47;;;;;;;9.95;2.25;;;;;;;2.96;61.11;99182.31;4143947;28;20073;-58
2021/12/02 08:50:50;;;;;;;5.97;1.40;;;;;;;3.02;60.31;99200.41;4137194;28;20108;-54
2021/12/02 08:52:55;;;;;;;6.80;1.40;;;;;;;2.95;60.96;99198.56;4145765;28;20454;-58
2021/12/02 08:54:58;;;;;;;7.13;1.40;;;;;;;2.99;60.72;99194.34;4145014;28;20100;-59
2021/12/02 08:57:23;;;;;;;5.55;1.38;;;;;;;2.93;58.83;99195.06;4146742;28;20046;-59
2021/12/02 08:59:26;;;;;;;4.65;1.23;;;;;;;2.95;59.64;99214.81;4146220;28;20054;-56
2021/12/02 09:01:29;;;;;;;4.95;1.88;;;;;;;3.01;59.58;99215.78;4145301;28;20068;-57
2021/12/02 09:03:33;;;;;;;10.48;3.22;;;;;;;3.07;59.09;99224.53;4144262;28;20133;-54
2021/12/02 09:05:37;;;;;;;9.02;1.70;;;;;;;3.11;59.34;99218.63;4146406;28;20045;-56
2021/12/02 09:07:40;;;;;;;6.35;2.22;;;;;;;3.16;58.69;99229.00;4162118;28;20046;-56
2021/12/02 09:09:44;;;;;;;3.80;1.90;;;;;;;3.18;58.79;99231.63;4152517;28;20052;-58
2021/12/02 09:11:48;;;;;;;5.40;1.52;;;;;;;3.20;58.68;99235.06;4150365;28;20053;-56
2021/12/02 09:13:56;;;;;;;3.72;1.30;;;;;;;3.28;58.35;99241.28;4149458;28;20056;-58
2021/12/02 09:15:59;;;;;;;4.65;1.30;;;;;;;3.33;57.91;99242.25;4158466;28;20045;-59
2021/12/02 09:18:03;;;;;;;4.85;1.20;;;;;;;3.37;56.79;99244.03;4148529;28;20522;-58
2021/12/02 09:20:08;;;;;;;7.95;1.52;;;;;;;3.42;56.44;99249.31;4145312;28;20645;-58
2021/12/02 09:22:12;;;;;;;12.70;1.83;;;;;;;3.46;55.16;99249.41;4148407;28;20046;-59
2021/12/02 09:24:19;;;;;;;4.50;1.00;;;;;;;3.43;54.42;99251.91;4147906;28;20148;-58
2021/12/02 09:26:23;;;;;;;2.22;1.00;;;;;;;3.44;54.96;99261.34;4143603;28;20197;-60
2021/12/02 09:28:26;;;;;;;4.15;1.15;;;;;;;3.47;54.26;99258.84;4149482;28;20068;-60
2021/12/02 09:30:33;;;;;;;4.97;1.00;;;;;;;3.53;52.69;99260.69;4149604;28;20034;-59
2021/12/02 09:32:38;;;;;;;10.45;1.27;;;;;;;3.47;53.23;99261.41;4148492;28;20553;-60
2021/12/02 09:34:41;;;;;;;5.68;0.82;;;;;;;3.42;51.60;99249.31;4146011;28;20499;-58
2021/12/02 09:36:46;;;;;;;4.30;1.50;;;;;;;3.44;52.19;99263.91;4140310;28;20056;-57
2021/12/02 09:38:50;;;;;;;4.18;1.55;;;;;;;3.55;51.31;99287.31;4146250;28;20049;-57
2021/12/02 09:40:53;;;;;;;2.72;0.93;;;;;;;3.54;51.40;99261.56;4150415;28;20553;-58
2021/12/02 09:42:56;;;;;;;6.47;1.13;;;;;;;3.53;51.24;99265.81;4147535;28;20462;-57
2021/12/02 09:45:01;;;;;;;5.13;1.20;;;;;;;3.55;51.66;99278.72;4144178;28;20054;-57
2021/12/02 09:47:06;;;;;;;3.80;1.63;;;;;;;3.53;51.51;99275.25;4155060;28;20586;-57
2021/12/02 09:49:11;;;;;;;4.32;1.20;;;;;;;3.54;51.98;99253.88;4147444;28;20046;-59
2021/12/02 09:51:20;;;;;;;4.70;1.23;;;;;;;3.57;51.59;99261.66;4184982;22;20052;-82
2021/12/02 09:53:53;;;;;;;4.63;1.15;;;;;;;3.62;51.43;99254.91;4184268;28;20038;-85
2021/12/02 09:56:07;;;;;;;3.90;1.02;;;;;;;3.41;51.34;99233.00;4172417;28;20045;-87
2021/12/02 09:58:18;;;;;;;7.97;1.63;;;;;;;3.60;51.47;99254.84;4171922;28;20107;-84
2021/12/02 10:00:39;;;;;;;4.47;1.50;;;;;;;3.59;50.65;99245.44;4163061;28;20124;-84
2021/12/02 10:02:54;;;;;;;3.15;1.15;;;;;;;3.71;50.74;99270.53;4200796;23;20052;-84